sensor_id;sensor_type;location;lat;lon;timestamp;P1;P2;P0
32503;PMS5003;18953;45.930;13.640;2023-02-28T00:01:33;14;12;
32503;PMS5003;18953;45.930;13.640;2023-02-28T00:06:49;17;14;
32503;PMS5003;18953;45.930;13.640;2023-02-28T00:12:06;18;14;
32503;PMS5003;18953;45.930;13.640;2023-02-28T00:17:22;15;12;
32503;PMS5003;18953;45.930;13.640;2023-02-28T00:22:39;15;15;
32503;PMS5003;18953;45.930;13.640;2023-02-28T00:27:55;16;15;
32503;PMS5003;18953;45.930;13.640;2023-02-28T00:33:12;15;14;
32503;PMS5003;18953;45.930;13.640;2023-02-28T00:38:28;15;14;
32503;PMS5003;18953;45.930;13.640;2023-02-28T00:43:44;17;15;
32503;PMS5003;18953;45.930;13.640;2023-02-28T00:49:00;14;13;
32503;PMS5003;18953;45.930;13.640;2023-02-28T00:54:17;14;13;
32503;PMS5003;18953;45.930;13.640;2023-02-28T00:59:33;17;14;
32503;PMS5003;18953;45.930;13.640;2023-02-28T01:04:50;14;13;
32503;PMS5003;18953;45.930;13.640;2023-02-28T01:10:07;16;13;
32503;PMS5003;18953;45.930;13.640;2023-02-28T01:15:22;14;13;
32503;PMS5003;18953;45.930;13.640;2023-02-28T01:20:39;16;13;
32503;PMS5003;18953;45.930;13.640;2023-02-28T01:25:55;14;12;
32503;PMS5003;18953;45.930;13.640;2023-02-28T01:31:12;15;11;
32503;PMS5003;18953;45.930;13.640;2023-02-28T01:36:28;19;17;
32503;PMS5003;18953;45.930;13.640;2023-02-28T01:41:44;19;16;
32503;PMS5003;18953;45.930;13.640;2023-02-28T01:47:01;18;15;
32503;PMS5003;18953;45.930;13.640;2023-02-28T01:52:17;16;15;
32503;PMS5003;18953;45.930;13.640;2023-02-28T01:57:34;15;14;
32503;PMS5003;18953;45.930;13.640;2023-02-28T02:02:51;18;14;
32503;PMS5003;18953;45.930;13.640;2023-02-28T02:08:08;15;14;
32503;PMS5003;18953;45.930;13.640;2023-02-28T02:13:26;14;14;
32503;PMS5003;18953;45.930;13.640;2023-02-28T02:18:40;15;12;
32503;PMS5003;18953;45.930;13.640;2023-02-28T02:23:59;17;14;
32503;PMS5003;18953;45.930;13.640;2023-02-28T02:29:21;13;12;
32503;PMS5003;18953;45.930;13.640;2023-02-28T02:34:31;18;15;
32503;PMS5003;18953;45.930;13.640;2023-02-28T02:39:47;18;16;
32503;PMS5003;18953;45.930;13.640;2023-02-28T02:45:02;15;14;
32503;PMS5003;18953;45.930;13.640;2023-02-28T02:50:19;19;17;
32503;PMS5003;18953;45.930;13.640;2023-02-28T02:55:36;15;14;
32503;PMS5003;18953;45.930;13.640;2023-02-28T03:00:51;20;18;
32503;PMS5003;18953;45.930;13.640;2023-02-28T03:06:07;18;16;
32503;PMS5003;18953;45.930;13.640;2023-02-28T03:11:24;16;15;
32503;PMS5003;18953;45.930;13.640;2023-02-28T03:16:45;15;12;
32503;PMS5003;18953;45.930;13.640;2023-02-28T03:22:00;16;14;
32503;PMS5003;18953;45.930;13.640;2023-02-28T03:27:15;11;10;
32503;PMS5003;18953;45.930;13.640;2023-02-28T03:32:29;15;14;
32503;PMS5003;18953;45.930;13.640;2023-02-28T03:37:45;18;14;
32503;PMS5003;18953;45.930;13.640;2023-02-28T03:43:03;14;14;
32503;PMS5003;18953;45.930;13.640;2023-02-28T03:48:19;20;18;
32503;PMS5003;18953;45.930;13.640;2023-02-28T03:53:35;22;21;
32503;PMS5003;18953;45.930;13.640;2023-02-28T03:58:51;17;16;
32503;PMS5003;18953;45.930;13.640;2023-02-28T04:04:07;21;16;
32503;PMS5003;18953;45.930;13.640;2023-02-28T04:09:23;15;14;
32503;PMS5003;18953;45.930;13.640;2023-02-28T04:14:40;18;15;
32503;PMS5003;18953;45.930;13.640;2023-02-28T04:19:56;16;14;
32503;PMS5003;18953;45.930;13.640;2023-02-28T04:25:13;15;15;
32503;PMS5003;18953;45.930;13.640;2023-02-28T04:30:29;22;17;
32503;PMS5003;18953;45.930;13.640;2023-02-28T04:35:46;16;15;
32503;PMS5003;18953;45.930;13.640;2023-02-28T04:41:02;16;14;
32503;PMS5003;18953;45.930;13.640;2023-02-28T04:46:19;17;15;
32503;PMS5003;18953;45.930;13.640;2023-02-28T04:51:35;16;15;
32503;PMS5003;18953;45.930;13.640;2023-02-28T04:56:52;21;17;
32503;PMS5003;18953;45.930;13.640;2023-02-28T05:02:08;17;14;
32503;PMS5003;18953;45.930;13.640;2023-02-28T05:07:25;17;17;
32503;PMS5003;18953;45.930;13.640;2023-02-28T05:12:42;20;19;
32503;PMS5003;18953;45.930;13.640;2023-02-28T05:17:58;19;17;
32503;PMS5003;18953;45.930;13.640;2023-02-28T05:23:16;22;19;
32503;PMS5003;18953;45.930;13.640;2023-02-28T05:28:32;25;18;
32503;PMS5003;18953;45.930;13.640;2023-02-28T05:33:48;18;18;
32503;PMS5003;18953;45.930;13.640;2023-02-28T05:39:06;31;27;
32503;PMS5003;18953;45.930;13.640;2023-02-28T05:44:22;21;20;
32503;PMS5003;18953;45.930;13.640;2023-02-28T05:49:39;28;20;
32503;PMS5003;18953;45.930;13.640;2023-02-28T05:54:55;40;34;
32503;PMS5003;18953;45.930;13.640;2023-02-28T06:00:12;35;29;
32503;PMS5003;18953;45.930;13.640;2023-02-28T06:05:28;46;41;
32503;PMS5003;18953;45.930;13.640;2023-02-28T06:10:45;33;28;
32503;PMS5003;18953;45.930;13.640;2023-02-28T06:16:01;88;68;
32503;PMS5003;18953;45.930;13.640;2023-02-28T06:21:18;33;31;
32503;PMS5003;18953;45.930;13.640;2023-02-28T06:26:34;39;33;
32503;PMS5003;18953;45.930;13.640;2023-02-28T06:31:51;43;37;
32503;PMS5003;18953;45.930;13.640;2023-02-28T06:37:08;32;32;
32503;PMS5003;18953;45.930;13.640;2023-02-28T06:42:24;37;35;
32503;PMS5003;18953;45.930;13.640;2023-02-28T06:47:41;43;39;
32503;PMS5003;18953;45.930;13.640;2023-02-28T06:52:57;45;40;
32503;PMS5003;18953;45.930;13.640;2023-02-28T06:58:14;76;62;
32503;PMS5003;18953;45.930;13.640;2023-02-28T07:03:30;40;38;
32503;PMS5003;18953;45.930;13.640;2023-02-28T07:08:46;40;33;
32503;PMS5003;18953;45.930;13.640;2023-02-28T07:14:03;48;44;
32503;PMS5003;18953;45.930;13.640;2023-02-28T07:20:03;47;39;
32503;PMS5003;18953;45.930;13.640;2023-02-28T07:25:40;43;38;
32503;PMS5003;18953;45.930;13.640;2023-02-28T07:30:56;30;26;
32503;PMS5003;18953;45.930;13.640;2023-02-28T07:36:13;39;37;
32503;PMS5003;18953;45.930;13.640;2023-02-28T07:41:30;47;41;
32503;PMS5003;18953;45.930;13.640;2023-02-28T07:46:46;18;14;
32503;PMS5003;18953;45.930;13.640;2023-02-28T07:52:03;18;16;
32503;PMS5003;18953;45.930;13.640;2023-02-28T07:57:19;15;12;
32503;PMS5003;18953;45.930;13.640;2023-02-28T08:02:36;12;12;
32503;PMS5003;18953;45.930;13.640;2023-02-28T08:07:52;28;24;
32503;PMS5003;18953;45.930;13.640;2023-02-28T08:13:08;13;13;
32503;PMS5003;18953;45.930;13.640;2023-02-28T08:18:25;15;14;
32503;PMS5003;18953;45.930;13.640;2023-02-28T08:23:41;12;11;
32503;PMS5003;18953;45.930;13.640;2023-02-28T08:28:57;13;12;
32503;PMS5003;18953;45.930;13.640;2023-02-28T08:34:14;10;9;
32503;PMS5003;18953;45.930;13.640;2023-02-28T08:39:30;12;11;
32503;PMS5003;18953;45.930;13.640;2023-02-28T08:44:46;11;9;
32503;PMS5003;18953;45.930;13.640;2023-02-28T08:50:03;14;13;
32503;PMS5003;18953;45.930;13.640;2023-02-28T08:55:19;25;22;
32503;PMS5003;18953;45.930;13.640;2023-02-28T09:00:36;16;12;
32503;PMS5003;18953;45.930;13.640;2023-02-28T09:05:53;19;17;
32503;PMS5003;18953;45.930;13.640;2023-02-28T09:11:09;17;16;
32503;PMS5003;18953;45.930;13.640;2023-02-28T09:16:25;22;19;
32503;PMS5003;18953;45.930;13.640;2023-02-28T09:21:42;11;9;
32503;PMS5003;18953;45.930;13.640;2023-02-28T09:26:58;11;10;
32503;PMS5003;18953;45.930;13.640;2023-02-28T09:32:15;12;11;
32503;PMS5003;18953;45.930;13.640;2023-02-28T09:37:31;16;14;
32503;PMS5003;18953;45.930;13.640;2023-02-28T09:42:47;11;9;
32503;PMS5003;18953;45.930;13.640;2023-02-28T09:48:04;10;10;
32503;PMS5003;18953;45.930;13.640;2023-02-28T09:53:21;11;10;
32503;PMS5003;18953;45.930;13.640;2023-02-28T09:58:38;15;14;
32503;PMS5003;18953;45.930;13.640;2023-02-28T10:03:55;15;13;
32503;PMS5003;18953;45.930;13.640;2023-02-28T10:09:10;11;10;
32503;PMS5003;18953;45.930;13.640;2023-02-28T10:14:26;15;12;
32503;PMS5003;18953;45.930;13.640;2023-02-28T10:19:44;12;11;
32503;PMS5003;18953;45.930;13.640;2023-02-28T10:24:59;11;10;
32503;PMS5003;18953;45.930;13.640;2023-02-28T10:30:15;11;10;
32503;PMS5003;18953;45.930;13.640;2023-02-28T10:35:32;12;11;
32503;PMS5003;18953;45.930;13.640;2023-02-28T10:40:48;11;11;
32503;PMS5003;18953;45.930;13.640;2023-02-28T10:46:09;12;11;
32503;PMS5003;18953;45.930;13.640;2023-02-28T10:51:20;11;10;
32503;PMS5003;18953;45.930;13.640;2023-02-28T10:56:37;14;11;
32503;PMS5003;18953;45.930;13.640;2023-02-28T11:01:53;12;12;
32503;PMS5003;18953;45.930;13.640;2023-02-28T11:07:16;16;13;
32503;PMS5003;18953;45.930;13.640;2023-02-28T11:12:26;14;11;
32503;PMS5003;18953;45.930;13.640;2023-02-28T11:17:42;14;11;
32503;PMS5003;18953;45.930;13.640;2023-02-28T11:22:59;16;13;
32503;PMS5003;18953;45.930;13.640;2023-02-28T11:28:24;12;11;
32503;PMS5003;18953;45.930;13.640;2023-02-28T11:33:37;15;13;
32503;PMS5003;18953;45.930;13.640;2023-02-28T11:38:49;17;14;
32503;PMS5003;18953;45.930;13.640;2023-02-28T11:44:09;12;11;
32503;PMS5003;18953;45.930;13.640;2023-02-28T11:49:26;14;13;
32503;PMS5003;18953;45.930;13.640;2023-02-28T11:54:44;17;13;
32503;PMS5003;18953;45.930;13.640;2023-02-28T11:59:56;12;11;
32503;PMS5003;18953;45.930;13.640;2023-02-28T12:05:14;9;9;
32503;PMS5003;18953;45.930;13.640;2023-02-28T12:10:28;15;13;
32503;PMS5003;18953;45.930;13.640;2023-02-28T12:15:47;11;11;
32503;PMS5003;18953;45.930;13.640;2023-02-28T12:21:01;14;11;
32503;PMS5003;18953;45.930;13.640;2023-02-28T12:26:17;12;12;
32503;PMS5003;18953;45.930;13.640;2023-02-28T12:31:33;11;11;
32503;PMS5003;18953;45.930;13.640;2023-02-28T12:36:49;14;12;
32503;PMS5003;18953;45.930;13.640;2023-02-28T12:42:07;12;12;
32503;PMS5003;18953;45.930;13.640;2023-02-28T12:47:22;20;18;
32503;PMS5003;18953;45.930;13.640;2023-02-28T12:52:40;22;22;
32503;PMS5003;18953;45.930;13.640;2023-02-28T12:57:57;15;13;
32503;PMS5003;18953;45.930;13.640;2023-02-28T13:03:17;16;16;
32503;PMS5003;18953;45.930;13.640;2023-02-28T13:08:35;19;16;
32503;PMS5003;18953;45.930;13.640;2023-02-28T13:13:44;18;17;
32503;PMS5003;18953;45.930;13.640;2023-02-28T13:19:08;18;16;
32503;PMS5003;18953;45.930;13.640;2023-02-28T13:24:48;17;16;
32503;PMS5003;18953;45.930;13.640;2023-02-28T13:29:34;22;19;
32503;PMS5003;18953;45.930;13.640;2023-02-28T13:35:12;18;15;
32503;PMS5003;18953;45.930;13.640;2023-02-28T13:40:22;14;13;
32503;PMS5003;18953;45.930;13.640;2023-02-28T13:45:23;16;16;
32503;PMS5003;18953;45.930;13.640;2023-02-28T13:50:38;19;16;
32503;PMS5003;18953;45.930;13.640;2023-02-28T13:55:57;24;19;
32503;PMS5003;18953;45.930;13.640;2023-02-28T14:01:14;17;16;
32503;PMS5003;18953;45.930;13.640;2023-02-28T14:06:27;16;15;
32503;PMS5003;18953;45.930;13.640;2023-02-28T14:11:44;16;14;
32503;PMS5003;18953;45.930;13.640;2023-02-28T14:17:00;23;20;
32503;PMS5003;18953;45.930;13.640;2023-02-28T14:22:19;20;17;
32503;PMS5003;18953;45.930;13.640;2023-02-28T14:27:35;22;19;
32503;PMS5003;18953;45.930;13.640;2023-02-28T14:32:50;19;18;
32503;PMS5003;18953;45.930;13.640;2023-02-28T14:38:06;17;15;
32503;PMS5003;18953;45.930;13.640;2023-02-28T14:43:24;23;19;
32503;PMS5003;18953;45.930;13.640;2023-02-28T14:48:40;23;21;
32503;PMS5003;18953;45.930;13.640;2023-02-28T14:53:57;25;21;
32503;PMS5003;18953;45.930;13.640;2023-02-28T14:59:31;27;23;
32503;PMS5003;18953;45.930;13.640;2023-02-28T15:04:28;22;21;
32503;PMS5003;18953;45.930;13.640;2023-02-28T15:09:45;23;20;
32503;PMS5003;18953;45.930;13.640;2023-02-28T15:15:01;23;22;
32503;PMS5003;18953;45.930;13.640;2023-02-28T15:20:18;21;20;
32503;PMS5003;18953;45.930;13.640;2023-02-28T15:25:34;23;22;
32503;PMS5003;18953;45.930;13.640;2023-02-28T15:30:52;20;18;
32503;PMS5003;18953;45.930;13.640;2023-02-28T15:36:10;21;20;
32503;PMS5003;18953;45.930;13.640;2023-02-28T15:41:24;22;19;
32503;PMS5003;18953;45.930;13.640;2023-02-28T15:46:40;27;23;
32503;PMS5003;18953;45.930;13.640;2023-02-28T15:51:58;25;22;
32503;PMS5003;18953;45.930;13.640;2023-02-28T15:57:13;21;18;
32503;PMS5003;18953;45.930;13.640;2023-02-28T16:02:30;22;20;
32503;PMS5003;18953;45.930;13.640;2023-02-28T16:07:46;29;25;
32503;PMS5003;18953;45.930;13.640;2023-02-28T16:13:03;27;23;
32503;PMS5003;18953;45.930;13.640;2023-02-28T16:18:19;23;20;
32503;PMS5003;18953;45.930;13.640;2023-02-28T16:23:35;31;26;
32503;PMS5003;18953;45.930;13.640;2023-02-28T16:28:52;30;26;
32503;PMS5003;18953;45.930;13.640;2023-02-28T16:34:08;26;22;
32503;PMS5003;18953;45.930;13.640;2023-02-28T16:39:25;25;25;
32503;PMS5003;18953;45.930;13.640;2023-02-28T16:44:41;26;24;
32503;PMS5003;18953;45.930;13.640;2023-02-28T16:49:58;30;28;
32503;PMS5003;18953;45.930;13.640;2023-02-28T16:55:15;40;27;
32503;PMS5003;18953;45.930;13.640;2023-02-28T17:00:31;31;28;
32503;PMS5003;18953;45.930;13.640;2023-02-28T17:05:47;28;24;
32503;PMS5003;18953;45.930;13.640;2023-02-28T17:11:03;31;26;
32503;PMS5003;18953;45.930;13.640;2023-02-28T17:16:22;24;22;
32503;PMS5003;18953;45.930;13.640;2023-02-28T17:21:36;46;35;
32503;PMS5003;18953;45.930;13.640;2023-02-28T17:26:53;26;22;
32503;PMS5003;18953;45.930;13.640;2023-02-28T17:32:09;26;22;
32503;PMS5003;18953;45.930;13.640;2023-02-28T17:37:25;22;21;
32503;PMS5003;18953;45.930;13.640;2023-02-28T17:42:42;37;33;
32503;PMS5003;18953;45.930;13.640;2023-02-28T17:47:59;41;36;
32503;PMS5003;18953;45.930;13.640;2023-02-28T17:53:16;34;30;
32503;PMS5003;18953;45.930;13.640;2023-02-28T17:58:32;34;28;
32503;PMS5003;18953;45.930;13.640;2023-02-28T18:03:48;33;28;
32503;PMS5003;18953;45.930;13.640;2023-02-28T18:09:05;30;26;
32503;PMS5003;18953;45.930;13.640;2023-02-28T18:14:22;29;26;
32503;PMS5003;18953;45.930;13.640;2023-02-28T18:19:37;26;23;
32503;PMS5003;18953;45.930;13.640;2023-02-28T18:24:54;31;28;
32503;PMS5003;18953;45.930;13.640;2023-02-28T18:30:10;32;26;
32503;PMS5003;18953;45.930;13.640;2023-02-28T18:35:27;30;29;
32503;PMS5003;18953;45.930;13.640;2023-02-28T18:40:49;34;27;
32503;PMS5003;18953;45.930;13.640;2023-02-28T18:46:02;23;20;
32503;PMS5003;18953;45.930;13.640;2023-02-28T18:51:17;30;27;
32503;PMS5003;18953;45.930;13.640;2023-02-28T18:56:33;27;23;
32503;PMS5003;18953;45.930;13.640;2023-02-28T19:01:50;27;24;
32503;PMS5003;18953;45.930;13.640;2023-02-28T19:07:06;42;34;
32503;PMS5003;18953;45.930;13.640;2023-02-28T19:12:23;26;22;
32503;PMS5003;18953;45.930;13.640;2023-02-28T19:17:39;25;23;
32503;PMS5003;18953;45.930;13.640;2023-02-28T19:22:56;23;20;
32503;PMS5003;18953;45.930;13.640;2023-02-28T19:28:12;25;23;
32503;PMS5003;18953;45.930;13.640;2023-02-28T19:33:28;25;16;
32503;PMS5003;18953;45.930;13.640;2023-02-28T19:38:45;46;41;
32503;PMS5003;18953;45.930;13.640;2023-02-28T19:44:02;67;52;
32503;PMS5003;18953;45.930;13.640;2023-02-28T19:49:19;71;56;
32503;PMS5003;18953;45.930;13.640;2023-02-28T19:54:35;47;42;
32503;PMS5003;18953;45.930;13.640;2023-02-28T19:59:52;40;36;
32503;PMS5003;18953;45.930;13.640;2023-02-28T20:05:09;35;32;
32503;PMS5003;18953;45.930;13.640;2023-02-28T20:10:25;37;32;
32503;PMS5003;18953;45.930;13.640;2023-02-28T20:15:42;44;37;
32503;PMS5003;18953;45.930;13.640;2023-02-28T20:20:59;58;47;
32503;PMS5003;18953;45.930;13.640;2023-02-28T20:26:15;59;47;
32503;PMS5003;18953;45.930;13.640;2023-02-28T20:31:32;55;46;
32503;PMS5003;18953;45.930;13.640;2023-02-28T20:36:48;72;55;
32503;PMS5003;18953;45.930;13.640;2023-02-28T20:42:05;66;52;
32503;PMS5003;18953;45.930;13.640;2023-02-28T20:47:23;71;58;
32503;PMS5003;18953;45.930;13.640;2023-02-28T20:52:39;58;50;
32503;PMS5003;18953;45.930;13.640;2023-02-28T20:57:55;72;57;
32503;PMS5003;18953;45.930;13.640;2023-02-28T21:03:12;73;56;
32503;PMS5003;18953;45.930;13.640;2023-02-28T21:08:29;68;50;
32503;PMS5003;18953;45.930;13.640;2023-02-28T21:13:46;56;47;
32503;PMS5003;18953;45.930;13.640;2023-02-28T21:19:02;66;50;
32503;PMS5003;18953;45.930;13.640;2023-02-28T21:24:19;58;50;
32503;PMS5003;18953;45.930;13.640;2023-02-28T21:29:35;53;43;
32503;PMS5003;18953;45.930;13.640;2023-02-28T21:34:52;55;44;
32503;PMS5003;18953;45.930;13.640;2023-02-28T21:40:08;59;48;
32503;PMS5003;18953;45.930;13.640;2023-02-28T21:45:24;74;61;
32503;PMS5003;18953;45.930;13.640;2023-02-28T21:50:41;65;52;
32503;PMS5003;18953;45.930;13.640;2023-02-28T21:55:59;56;47;
32503;PMS5003;18953;45.930;13.640;2023-02-28T22:01:15;45;39;
32503;PMS5003;18953;45.930;13.640;2023-02-28T22:06:32;59;47;
32503;PMS5003;18953;45.930;13.640;2023-02-28T22:11:48;49;42;
32503;PMS5003;18953;45.930;13.640;2023-02-28T22:17:04;40;34;
32503;PMS5003;18953;45.930;13.640;2023-02-28T22:22:20;39;35;
32503;PMS5003;18953;45.930;13.640;2023-02-28T22:27:37;28;27;
32503;PMS5003;18953;45.930;13.640;2023-02-28T22:32:53;35;30;
32503;PMS5003;18953;45.930;13.640;2023-02-28T22:38:09;34;32;
32503;PMS5003;18953;45.930;13.640;2023-02-28T22:43:26;31;30;
32503;PMS5003;18953;45.930;13.640;2023-02-28T22:48:42;35;31;
32503;PMS5003;18953;45.930;13.640;2023-02-28T22:53:59;40;37;
32503;PMS5003;18953;45.930;13.640;2023-02-28T22:59:15;42;38;
32503;PMS5003;18953;45.930;13.640;2023-02-28T23:04:32;42;36;
32503;PMS5003;18953;45.930;13.640;2023-02-28T23:09:48;36;33;
32503;PMS5003;18953;45.930;13.640;2023-02-28T23:15:05;36;32;
32503;PMS5003;18953;45.930;13.640;2023-02-28T23:20:21;32;28;
32503;PMS5003;18953;45.930;13.640;2023-02-28T23:25:38;42;38;
32503;PMS5003;18953;45.930;13.640;2023-02-28T23:30:54;30;24;
32503;PMS5003;18953;45.930;13.640;2023-02-28T23:36:11;35;31;
32503;PMS5003;18953;45.930;13.640;2023-02-28T23:41:26;32;29;
32503;PMS5003;18953;45.930;13.640;2023-02-28T23:46:43;32;27;
32503;PMS5003;18953;45.930;13.640;2023-02-28T23:51:59;67;51;
32503;PMS5003;18953;45.930;13.640;2023-02-28T23:57:15;46;43;
